Weather at Paoli Municipal Airport

Public forecast

Using degrees Fahrenheit for public forecast. Weather courtesy of forecast.io.

Closest aviation weather report (METAR) to Paoli Municipal Airport

Closest report is Huntingburg Airport, 30.6 nm (56.7 km) SW. Retrieved 2020/09/18 04:56 UTC (1 hour ago):

KHNB 180456Z AUTO 02006KT 10SM CLR 18/16 A3006 RMK AO2 SLP176 T01780156

Closest aviation forecast (TAF) to Paoli Municipal Airport

Closest forecast is Huntingburg Airport, 30.6 nm (56.7 km) SW. Retrieved 2020-09-18 00:21 UTC (6 hours ago):

TAF KHNB 172320Z 1800/1824 01007KT P6SM SCT250 FM180200 36010KT P6SM SCT050 FM181500 02011G19KT P6SM SCT250